sensor_id;sensor_type;location;lat;lon;timestamp;pressure;altitude;pressure_sealevel;temperature;humidity
64739;BME280;51175;51.186;0.276;2022-08-19T00:00:18;100973.16;;;24.42;56.14
64739;BME280;51175;51.186;0.276;2022-08-19T00:00:49;100977.44;;;24.43;56.15
64739;BME280;51175;51.186;0.276;2022-08-19T00:01:20;100975.84;;;24.42;56.35
64739;BME280;51175;51.186;0.276;2022-08-19T00:01:54;100972.41;;;24.42;56.23
64739;BME280;51175;51.186;0.276;2022-08-19T00:02:24;100970.47;;;24.42;56.12
64739;BME280;51175;51.186;0.276;2022-08-19T00:02:55;100968.91;;;24.41;56.31
64739;BME280;51175;51.186;0.276;2022-08-19T00:03:25;100973.16;;;24.42;56.11
64739;BME280;51175;51.186;0.276;2022-08-19T00:03:58;100968.56;;;24.43;56.28
64739;BME280;51175;51.186;0.276;2022-08-19T00:04:34;100981.25;;;24.42;56.37
64739;BME280;51175;51.186;0.276;2022-08-19T00:05:07;100970.47;;;24.42;56.32
64739;BME280;51175;51.186;0.276;2022-08-19T00:05:37;100966.19;;;24.41;56.20
64739;BME280;51175;51.186;0.276;2022-08-19T00:06:08;100967.00;;;24.42;56.26
64739;BME280;51175;51.186;0.276;2022-08-19T00:06:42;100966.19;;;24.41;56.04
64739;BME280;51175;51.186;0.276;2022-08-19T00:07:13;100968.91;;;24.41;56.26
64739;BME280;51175;51.186;0.276;2022-08-19T00:07:43;100962.72;;;24.41;56.15
64739;BME280;51175;51.186;0.276;2022-08-19T00:08:14;100967.00;;;24.42;56.32
64739;BME280;51175;51.186;0.276;2022-08-19T00:08:44;100961.59;;;24.42;56.12
64739;BME280;51175;51.186;0.276;2022-08-19T00:09:18;100971.59;;;24.41;56.41
64739;BME280;51175;51.186;0.276;2022-08-19T00:09:48;100968.09;;;24.41;56.29
64739;BME280;51175;51.186;0.276;2022-08-19T00:10:19;100966.19;;;24.41;56.24
64739;BME280;51175;51.186;0.276;2022-08-19T00:10:50;100968.09;;;24.41;56.26
64739;BME280;51175;51.186;0.276;2022-08-19T00:11:21;100966.19;;;24.41;56.17
64739;BME280;51175;51.186;0.276;2022-08-19T00:11:53;100967.34;;;24.40;56.04
64739;BME280;51175;51.186;0.276;2022-08-19T00:12:25;100971.59;;;24.41;56.35
64739;BME280;51175;51.186;0.276;2022-08-19T00:12:56;100964.63;;;24.40;56.41
64739;BME280;51175;51.186;0.276;2022-08-19T00:13:26;100959.25;;;24.40;56.48
64739;BME280;51175;51.186;0.276;2022-08-19T00:13:58;100961.16;;;24.40;56.25
64739;BME280;51175;51.186;0.276;2022-08-19T00:14:29;100959.25;;;24.40;56.28
64739;BME280;51175;51.186;0.276;2022-08-19T00:15:09;100958.09;;;24.41;56.37
64739;BME280;51175;51.186;0.276;2022-08-19T00:15:43;100962.72;;;24.41;56.52
64739;BME280;51175;51.186;0.276;2022-08-19T00:16:15;100959.25;;;24.40;56.28
64739;BME280;51175;51.186;0.276;2022-08-19T00:16:46;100959.25;;;24.40;56.18
64739;BME280;51175;51.186;0.276;2022-08-19T00:17:17;100957.66;;;24.39;56.36
64739;BME280;51175;51.186;0.276;2022-08-19T00:17:48;100950.34;;;24.40;56.38
64739;BME280;51175;51.186;0.276;2022-08-19T00:18:19;100954.94;;;24.39;56.45
64739;BME280;51175;51.186;0.276;2022-08-19T00:18:49;100949.22;;;24.41;56.60
64739;BME280;51175;51.186;0.276;2022-08-19T00:19:20;100946.84;;;24.39;56.46
64739;BME280;51175;51.186;0.276;2022-08-19T00:19:51;100946.09;;;24.39;56.35
64739;BME280;51175;51.186;0.276;2022-08-19T00:20:21;100954.94;;;24.39;56.38
64739;BME280;51175;51.186;0.276;2022-08-19T00:20:52;100943.38;;;24.39;56.42
64739;BME280;51175;51.186;0.276;2022-08-19T00:21:24;100943.38;;;24.39;56.59
64739;BME280;51175;51.186;0.276;2022-08-19T00:21:54;100946.09;;;24.39;56.53
64739;BME280;51175;51.186;0.276;2022-08-19T00:22:26;100939.91;;;24.38;56.44
64739;BME280;51175;51.186;0.276;2022-08-19T00:23:01;100944.94;;;24.40;56.50
64739;BME280;51175;51.186;0.276;2022-08-19T00:23:34;100939.09;;;24.38;56.56
64739;BME280;51175;51.186;0.276;2022-08-19T00:24:11;100938.00;;;24.39;56.26
64739;BME280;51175;51.186;0.276;2022-08-19T00:24:41;100940.69;;;24.39;56.46
64739;BME280;51175;51.186;0.276;2022-08-19T00:25:14;100947.19;;;24.38;56.50
64739;BME280;51175;51.186;0.276;2022-08-19T00:25:45;100949.91;;;24.38;56.48
64739;BME280;51175;51.186;0.276;2022-08-19T00:26:15;100947.19;;;24.38;56.56
64739;BME280;51175;51.186;0.276;2022-08-19T00:26:46;100958.00;;;24.38;56.65
64739;BME280;51175;51.186;0.276;2022-08-19T00:27:17;100958.00;;;24.38;56.41
64739;BME280;51175;51.186;0.276;2022-08-19T00:27:47;100958.00;;;24.38;56.71
64739;BME280;51175;51.186;0.276;2022-08-19T00:28:18;100957.22;;;24.37;56.50
64739;BME280;51175;51.186;0.276;2022-08-19T00:28:49;100960.69;;;24.38;56.42
64739;BME280;51175;51.186;0.276;2022-08-19T00:29:20;100958.00;;;24.38;56.55
64739;BME280;51175;51.186;0.276;2022-08-19T00:29:51;100956.44;;;24.37;56.56
64739;BME280;51175;51.186;0.276;2022-08-19T00:30:21;100959.13;;;24.37;56.60
64739;BME280;51175;51.186;0.276;2022-08-19T00:30:52;100957.22;;;24.37;56.58
64739;BME280;51175;51.186;0.276;2022-08-19T00:31:23;100957.22;;;24.37;56.79
64739;BME280;51175;51.186;0.276;2022-08-19T00:31:55;100966.09;;;24.38;56.47
64739;BME280;51175;51.186;0.276;2022-08-19T00:32:28;100963.38;;;24.38;56.51
64739;BME280;51175;51.186;0.276;2022-08-19T00:32:58;100963.72;;;24.36;56.61
64739;BME280;51175;51.186;0.276;2022-08-19T00:33:29;100966.09;;;24.38;56.81
64739;BME280;51175;51.186;0.276;2022-08-19T00:34:03;100953.75;;;24.37;56.62
64739;BME280;51175;51.186;0.276;2022-08-19T00:34:34;100958.34;;;24.36;56.52
64739;BME280;51175;51.186;0.276;2022-08-19T00:35:05;100950.25;;;24.36;56.43
64739;BME280;51175;51.186;0.276;2022-08-19T00:35:36;100955.63;;;24.36;56.71
64739;BME280;51175;51.186;0.276;2022-08-19T00:36:11;100963.72;;;24.36;56.65
64739;BME280;51175;51.186;0.276;2022-08-19T00:36:42;100961.03;;;24.36;56.63
64739;BME280;51175;51.186;0.276;2022-08-19T00:37:13;100953.75;;;24.37;56.67
64739;BME280;51175;51.186;0.276;2022-08-19T00:37:43;100950.25;;;24.36;56.97
64739;BME280;51175;51.186;0.276;2022-08-19T00:38:14;100955.63;;;24.36;56.74
64739;BME280;51175;51.186;0.276;2022-08-19T00:38:45;100955.63;;;24.36;56.77
64739;BME280;51175;51.186;0.276;2022-08-19T00:39:16;100954.88;;;24.36;56.65
64739;BME280;51175;51.186;0.276;2022-08-19T00:39:47;100954.88;;;24.36;56.74
64739;BME280;51175;51.186;0.276;2022-08-19T00:40:17;100957.91;;;24.34;56.68
64739;BME280;51175;51.186;0.276;2022-08-19T00:40:49;100957.56;;;24.36;56.65
64739;BME280;51175;51.186;0.276;2022-08-19T00:41:21;100957.56;;;24.36;56.57
64739;BME280;51175;51.186;0.276;2022-08-19T00:41:53;100948.69;;;24.35;56.65
64739;BME280;51175;51.186;0.276;2022-08-19T00:42:23;100954.06;;;24.35;56.66
64739;BME280;51175;51.186;0.276;2022-08-19T00:42:54;100950.59;;;24.35;56.88
64739;BME280;51175;51.186;0.276;2022-08-19T00:43:26;100956.78;;;24.35;56.71
64739;BME280;51175;51.186;0.276;2022-08-19T00:44:31;100955.97;;;24.35;56.71
64739;BME280;51175;51.186;0.276;2022-08-19T00:45:09;100960.28;;;24.36;56.71
64739;BME280;51175;51.186;0.276;2022-08-19T00:45:40;100958.69;;;24.35;56.67
64739;BME280;51175;51.186;0.276;2022-08-19T00:46:13;100953.28;;;24.35;56.70
64739;BME280;51175;51.186;0.276;2022-08-19T00:46:46;100960.63;;;24.34;56.92
64739;BME280;51175;51.186;0.276;2022-08-19T00:47:18;100958.69;;;24.35;56.74
64739;BME280;51175;51.186;0.276;2022-08-19T00:47:48;100955.22;;;24.34;56.87
64739;BME280;51175;51.186;0.276;2022-08-19T00:48:19;100959.81;;;24.34;56.74
64739;BME280;51175;51.186;0.276;2022-08-19T00:48:50;100968.72;;;24.34;56.92
64739;BME280;51175;51.186;0.276;2022-08-19T00:49:37;100960.63;;;24.34;56.85
64739;BME280;51175;51.186;0.276;2022-08-19T00:50:08;100967.13;;;24.33;56.65
64739;BME280;51175;51.186;0.276;2022-08-19T00:50:40;100966.31;;;24.33;56.91
64739;BME280;51175;51.186;0.276;2022-08-19T00:51:13;100960.94;;;24.33;56.74
64739;BME280;51175;51.186;0.276;2022-08-19T00:51:45;100959.38;;;24.32;56.79
64739;BME280;51175;51.186;0.276;2022-08-19T00:52:24;100960.16;;;24.32;56.75
64739;BME280;51175;51.186;0.276;2022-08-19T00:52:55;100959.38;;;24.32;56.78
64739;BME280;51175;51.186;0.276;2022-08-19T00:53:29;100970.16;;;24.32;56.96
64739;BME280;51175;51.186;0.276;2022-08-19T00:54:02;100967.47;;;24.32;56.87
64739;BME280;51175;51.186;0.276;2022-08-19T00:54:35;100964.75;;;24.32;56.93
64739;BME280;51175;51.186;0.276;2022-08-19T00:55:08;100958.56;;;24.31;56.80
64739;BME280;51175;51.186;0.276;2022-08-19T00:55:44;100958.56;;;24.31;56.75
64739;BME280;51175;51.186;0.276;2022-08-19T00:56:15;100967.47;;;24.32;56.91
64739;BME280;51175;51.186;0.276;2022-08-19T00:56:47;100959.72;;;24.30;56.88
64739;BME280;51175;51.186;0.276;2022-08-19T00:57:24;100961.63;;;24.29;56.95
64739;BME280;51175;51.186;0.276;2022-08-19T00:58:00;100970.16;;;24.32;57.10
64739;BME280;51175;51.186;0.276;2022-08-19T00:58:34;100957.81;;;24.30;56.94
64739;BME280;51175;51.186;0.276;2022-08-19T00:59:05;100965.09;;;24.30;56.98
64739;BME280;51175;51.186;0.276;2022-08-19T00:59:40;100954.31;;;24.30;56.79
64739;BME280;51175;51.186;0.276;2022-08-19T01:00:14;100953.53;;;24.29;56.94
64739;BME280;51175;51.186;0.276;2022-08-19T01:00:46;100953.53;;;24.29;56.94
64739;BME280;51175;51.186;0.276;2022-08-19T01:01:17;100950.81;;;24.29;56.88
64739;BME280;51175;51.186;0.276;2022-08-19T01:01:47;100948.13;;;24.29;57.08
64739;BME280;51175;51.186;0.276;2022-08-19T01:02:18;100943.53;;;24.30;56.88
64739;BME280;51175;51.186;0.276;2022-08-19T01:02:49;100951.63;;;24.30;57.17
64739;BME280;51175;51.186;0.276;2022-08-19T01:03:20;100945.41;;;24.29;56.88
64739;BME280;51175;51.186;0.276;2022-08-19T01:03:51;100948.13;;;24.29;57.01
64739;BME280;51175;51.186;0.276;2022-08-19T01:04:21;100946.56;;;24.28;57.09
64739;BME280;51175;51.186;0.276;2022-08-19T01:04:52;100944.66;;;24.29;56.87
64739;BME280;51175;51.186;0.276;2022-08-19T01:05:27;100948.13;;;24.29;56.96
64739;BME280;51175;51.186;0.276;2022-08-19T01:05:58;100945.41;;;24.29;56.91
64739;BME280;51175;51.186;0.276;2022-08-19T01:06:31;100948.13;;;24.29;56.85
64739;BME280;51175;51.186;0.276;2022-08-19T01:07:03;100948.13;;;24.29;57.00
64739;BME280;51175;51.186;0.276;2022-08-19T01:07:34;100950.06;;;24.29;56.92
64739;BME280;51175;51.186;0.276;2022-08-19T01:08:06;100943.88;;;24.28;56.99
64739;BME280;51175;51.186;0.276;2022-08-19T01:08:37;100950.06;;;24.29;56.92
64739;BME280;51175;51.186;0.276;2022-08-19T01:09:08;100947.34;;;24.29;56.97
64739;BME280;51175;51.186;0.276;2022-08-19T01:09:38;100949.25;;;24.28;56.85
64739;BME280;51175;51.186;0.276;2022-08-19T01:10:12;100951.97;;;24.28;56.99
64739;BME280;51175;51.186;0.276;2022-08-19T01:10:54;100948.13;;;24.29;57.08
64739;BME280;51175;51.186;0.276;2022-08-19T01:11:27;100951.97;;;24.28;56.87
64739;BME280;51175;51.186;0.276;2022-08-19T01:11:58;100952.75;;;24.29;56.90
64739;BME280;51175;51.186;0.276;2022-08-19T01:12:28;100949.25;;;24.28;56.91
64739;BME280;51175;51.186;0.276;2022-08-19T01:13:00;100952.75;;;24.29;56.90
64739;BME280;51175;51.186;0.276;2022-08-19T01:13:33;100959.25;;;24.28;56.94
64739;BME280;51175;51.186;0.276;2022-08-19T01:14:03;100953.88;;;24.28;56.92
64739;BME280;51175;51.186;0.276;2022-08-19T01:14:37;100954.66;;;24.28;56.85
64739;BME280;51175;51.186;0.276;2022-08-19T01:15:11;100964.66;;;24.28;57.01
64739;BME280;51175;51.186;0.276;2022-08-19T01:15:45;100954.66;;;24.28;56.81
64739;BME280;51175;51.186;0.276;2022-08-19T01:16:19;100964.31;;;24.29;56.93
64739;BME280;51175;51.186;0.276;2022-08-19T01:16:51;100957.34;;;24.28;57.08
64739;BME280;51175;51.186;0.276;2022-08-19T01:17:24;100951.16;;;24.28;57.04
64739;BME280;51175;51.186;0.276;2022-08-19T01:17:55;100953.09;;;24.27;57.05
64739;BME280;51175;51.186;0.276;2022-08-19T01:18:27;100955.78;;;24.27;56.96
64739;BME280;51175;51.186;0.276;2022-08-19T01:18:58;100950.41;;;24.27;57.01
64739;BME280;51175;51.186;0.276;2022-08-19T01:19:33;100953.09;;;24.27;56.96
64739;BME280;51175;51.186;0.276;2022-08-19T01:20:05;100957.69;;;24.27;56.99
64739;BME280;51175;51.186;0.276;2022-08-19T01:20:39;100953.88;;;24.28;56.99
64739;BME280;51175;51.186;0.276;2022-08-19T01:21:18;100949.59;;;24.27;56.89
64739;BME280;51175;51.186;0.276;2022-08-19T01:22:45;100953.88;;;24.28;57.05
64739;BME280;51175;51.186;0.276;2022-08-19T01:23:16;100949.59;;;24.27;57.00
64739;BME280;51175;51.186;0.276;2022-08-19T01:23:47;100953.09;;;24.27;56.97
64739;BME280;51175;51.186;0.276;2022-08-19T01:24:17;100950.75;;;24.26;57.10
64739;BME280;51175;51.186;0.276;2022-08-19T01:24:48;100944.53;;;24.25;57.10
64739;BME280;51175;51.186;0.276;2022-08-19T01:25:24;100944.53;;;24.25;56.92
64739;BME280;51175;51.186;0.276;2022-08-19T01:25:56;100957.25;;;24.25;57.14
64739;BME280;51175;51.186;0.276;2022-08-19T01:26:27;100957.25;;;24.25;57.00
64739;BME280;51175;51.186;0.276;2022-08-19T01:26:58;100953.00;;;24.24;56.99
64739;BME280;51175;51.186;0.276;2022-08-19T01:27:40;100955.34;;;24.25;57.14
64739;BME280;51175;51.186;0.276;2022-08-19T01:28:25;100957.25;;;24.25;57.02
64739;BME280;51175;51.186;0.276;2022-08-19T01:28:58;100948.38;;;24.24;57.18
64739;BME280;51175;51.186;0.276;2022-08-19T01:29:28;100954.53;;;24.25;57.16
64739;BME280;51175;51.186;0.276;2022-08-19T01:29:59;100948.38;;;24.24;57.08
64739;BME280;51175;51.186;0.276;2022-08-19T01:30:33;100949.16;;;24.25;57.10
64739;BME280;51175;51.186;0.276;2022-08-19T01:31:04;100956.81;;;24.23;57.25
64739;BME280;51175;51.186;0.276;2022-08-19T01:31:34;100957.59;;;24.23;57.03
64739;BME280;51175;51.186;0.276;2022-08-19T01:32:05;100954.88;;;24.23;57.33
64739;BME280;51175;51.186;0.276;2022-08-19T01:32:36;100958.38;;;24.24;57.10
64739;BME280;51175;51.186;0.276;2022-08-19T01:33:06;100951.44;;;24.23;57.18
64739;BME280;51175;51.186;0.276;2022-08-19T01:33:37;100954.88;;;24.23;57.20
64739;BME280;51175;51.186;0.276;2022-08-19T01:34:08;100956.81;;;24.23;57.19
64739;BME280;51175;51.186;0.276;2022-08-19T01:34:41;100952.19;;;24.23;57.11
64739;BME280;51175;51.186;0.276;2022-08-19T01:35:13;100950.28;;;24.24;57.20
64739;BME280;51175;51.186;0.276;2022-08-19T01:35:43;100956.47;;;24.24;57.21
64739;BME280;51175;51.186;0.276;2022-08-19T01:36:26;100946.78;;;24.23;57.12
64739;BME280;51175;51.186;0.276;2022-08-19T01:36:57;100954.88;;;24.23;56.97
64739;BME280;51175;51.186;0.276;2022-08-19T01:37:28;100944.09;;;24.23;57.10
64739;BME280;51175;51.186;0.276;2022-08-19T01:38:04;100954.13;;;24.23;57.25
64739;BME280;51175;51.186;0.276;2022-08-19T01:38:39;100954.88;;;24.23;57.24
64739;BME280;51175;51.186;0.276;2022-08-19T01:39:14;100954.13;;;24.23;57.20
64739;BME280;51175;51.186;0.276;2022-08-19T01:39:45;100960.28;;;24.23;57.13
64739;BME280;51175;51.186;0.276;2022-08-19T01:40:16;100954.13;;;24.23;57.14
64739;BME280;51175;51.186;0.276;2022-08-19T01:40:49;100954.13;;;24.23;57.24
64739;BME280;51175;51.186;0.276;2022-08-19T01:41:20;100951.44;;;24.23;57.19
64739;BME280;51175;51.186;0.276;2022-08-19T01:41:51;100958.38;;;24.24;57.37
64739;BME280;51175;51.186;0.276;2022-08-19T01:42:25;100946.78;;;24.23;57.08
64739;BME280;51175;51.186;0.276;2022-08-19T01:42:55;100954.13;;;24.23;57.18
64739;BME280;51175;51.186;0.276;2022-08-19T01:43:25;100956.81;;;24.23;57.26
64739;BME280;51175;51.186;0.276;2022-08-19T01:43:56;100953.31;;;24.22;57.36
64739;BME280;51175;51.186;0.276;2022-08-19T01:44:27;100947.94;;;24.22;57.43
64739;BME280;51175;51.186;0.276;2022-08-19T01:44:57;100945.22;;;24.22;57.24
64739;BME280;51175;51.186;0.276;2022-08-19T01:45:30;100956.03;;;24.22;57.31
64739;BME280;51175;51.186;0.276;2022-08-19T01:46:01;100943.34;;;24.23;57.28
64739;BME280;51175;51.186;0.276;2022-08-19T01:46:33;100946.78;;;24.23;57.24
64739;BME280;51175;51.186;0.276;2022-08-19T01:47:04;100953.31;;;24.22;57.29
64739;BME280;51175;51.186;0.276;2022-08-19T01:47:35;100948.72;;;24.23;57.30
64739;BME280;51175;51.186;0.276;2022-08-19T01:48:06;100951.44;;;24.23;57.13
64739;BME280;51175;51.186;0.276;2022-08-19T01:48:39;100945.22;;;24.22;57.25
64739;BME280;51175;51.186;0.276;2022-08-19T01:49:10;100951.44;;;24.23;57.27
64739;BME280;51175;51.186;0.276;2022-08-19T01:49:41;100945.22;;;24.22;57.24
64739;BME280;51175;51.186;0.276;2022-08-19T01:50:12;100946.03;;;24.23;57.34
64739;BME280;51175;51.186;0.276;2022-08-19T01:50:43;100946.03;;;24.23;57.20
64739;BME280;51175;51.186;0.276;2022-08-19T01:51:14;100940.63;;;24.23;57.36
64739;BME280;51175;51.186;0.276;2022-08-19T01:51:45;100939.03;;;24.22;57.34
64739;BME280;51175;51.186;0.276;2022-08-19T01:52:16;100936.34;;;24.22;57.46
64739;BME280;51175;51.186;0.276;2022-08-19T01:52:47;100940.63;;;24.23;57.40
64739;BME280;51175;51.186;0.276;2022-08-19T01:53:17;100937.13;;;24.22;57.42
64739;BME280;51175;51.186;0.276;2022-08-19T01:53:49;100946.03;;;24.23;57.19
64739;BME280;51175;51.186;0.276;2022-08-19T01:54:22;100936.34;;;24.22;57.37
64739;BME280;51175;51.186;0.276;2022-08-19T01:54:53;100937.13;;;24.22;57.21
64739;BME280;51175;51.186;0.276;2022-08-19T01:55:23;100933.66;;;24.22;57.13
64739;BME280;51175;51.186;0.276;2022-08-19T01:55:54;100935.22;;;24.23;57.34
64739;BME280;51175;51.186;0.276;2022-08-19T01:56:25;100937.13;;;24.22;57.39
64739;BME280;51175;51.186;0.276;2022-08-19T01:57:03;100935.22;;;24.23;57.17
64739;BME280;51175;51.186;0.276;2022-08-19T01:57:35;100936.34;;;24.22;57.30
64739;BME280;51175;51.186;0.276;2022-08-19T01:58:12;100933.66;;;24.22;57.09
64739;BME280;51175;51.186;0.276;2022-08-19T01:58:54;100937.13;;;24.22;57.19
64739;BME280;51175;51.186;0.276;2022-08-19T01:59:26;100937.13;;;24.22;57.34
64739;BME280;51175;51.186;0.276;2022-08-19T01:59:56;100938.28;;;24.21;57.38
64739;BME280;51175;51.186;0.276;2022-08-19T02:00:29;100937.47;;;24.21;57.27
64739;BME280;51175;51.186;0.276;2022-08-19T02:01:01;100931.28;;;24.20;57.32
64739;BME280;51175;51.186;0.276;2022-08-19T02:01:32;100935.91;;;24.20;57.27
64739;BME280;51175;51.186;0.276;2022-08-19T02:02:04;100932.88;;;24.21;57.30
64739;BME280;51175;51.186;0.276;2022-08-19T02:02:37;100939.03;;;24.22;57.48
64739;BME280;51175;51.186;0.276;2022-08-19T02:03:08;100937.47;;;24.21;57.27
64739;BME280;51175;51.186;0.276;2022-08-19T02:03:41;100937.47;;;24.21;57.30
64739;BME280;51175;51.186;0.276;2022-08-19T02:04:11;100938.63;;;24.20;57.49
64739;BME280;51175;51.186;0.276;2022-08-19T02:04:42;100942.88;;;24.21;57.31
64739;BME280;51175;51.186;0.276;2022-08-19T02:05:12;100940.97;;;24.21;57.40
64739;BME280;51175;51.186;0.276;2022-08-19T02:05:43;100939.38;;;24.20;57.42
64739;BME280;51175;51.186;0.276;2022-08-19T02:06:14;100942.88;;;24.21;57.27
64739;BME280;51175;51.186;0.276;2022-08-19T02:06:46;100946.38;;;24.21;57.21
64739;BME280;51175;51.186;0.276;2022-08-19T02:07:21;100944.78;;;24.20;57.35
64739;BME280;51175;51.186;0.276;2022-08-19T02:07:51;100950.97;;;24.21;57.41
64739;BME280;51175;51.186;0.276;2022-08-19T02:08:22;100950.97;;;24.21;57.40
64739;BME280;51175;51.186;0.276;2022-08-19T02:08:52;100947.47;;;24.20;57.48
64739;BME280;51175;51.186;0.276;2022-08-19T02:09:23;100941.31;;;24.20;57.42
64739;BME280;51175;51.186;0.276;2022-08-19T02:09:53;100953.66;;;24.21;57.52
64739;BME280;51175;51.186;0.276;2022-08-19T02:10:25;100944.00;;;24.20;57.20
64739;BME280;51175;51.186;0.276;2022-08-19T02:10:56;100950.19;;;24.20;57.35
64739;BME280;51175;51.186;0.276;2022-08-19T02:11:29;100944.78;;;24.20;57.38
64739;BME280;51175;51.186;0.276;2022-08-19T02:12:02;100952.88;;;24.20;57.46
64739;BME280;51175;51.186;0.276;2022-08-19T02:12:33;100935.91;;;24.20;57.46
64739;BME280;51175;51.186;0.276;2022-08-19T02:13:03;100942.09;;;24.20;57.44
64739;BME280;51175;51.186;0.276;2022-08-19T02:13:34;100945.56;;;24.21;57.48
64739;BME280;51175;51.186;0.276;2022-08-19T02:14:06;100945.91;;;24.19;57.40
64739;BME280;51175;51.186;0.276;2022-08-19T02:14:36;100948.63;;;24.19;57.48
64739;BME280;51175;51.186;0.276;2022-08-19T02:15:07;100942.09;;;24.20;57.39
64739;BME280;51175;51.186;0.276;2022-08-19T02:15:38;100941.31;;;24.20;57.41
64739;BME280;51175;51.186;0.276;2022-08-19T02:16:08;100941.31;;;24.20;57.39
64739;BME280;51175;51.186;0.276;2022-08-19T02:16:38;100952.09;;;24.20;57.53
64739;BME280;51175;51.186;0.276;2022-08-19T02:17:10;100952.88;;;24.20;57.22
64739;BME280;51175;51.186;0.276;2022-08-19T02:17:41;100946.72;;;24.20;57.50
64739;BME280;51175;51.186;0.276;2022-08-19T02:18:12;100949.41;;;24.20;57.46
64739;BME280;51175;51.186;0.276;2022-08-19T02:18:43;100946.72;;;24.20;57.50
64739;BME280;51175;51.186;0.276;2022-08-19T02:19:14;100949.41;;;24.20;57.34
64739;BME280;51175;51.186;0.276;2022-08-19T02:19:44;100952.09;;;24.20;57.58
64739;BME280;51175;51.186;0.276;2022-08-19T02:20:15;100949.41;;;24.20;57.43
64739;BME280;51175;51.186;0.276;2022-08-19T02:20:46;100957.50;;;24.20;57.32
64739;BME280;51175;51.186;0.276;2022-08-19T02:21:19;100949.41;;;24.20;57.43
64739;BME280;51175;51.186;0.276;2022-08-19T02:21:51;100945.91;;;24.19;57.33
64739;BME280;51175;51.186;0.276;2022-08-19T02:22:22;100946.72;;;24.20;57.54
64739;BME280;51175;51.186;0.276;2022-08-19T02:22:54;100945.91;;;24.19;57.42
64739;BME280;51175;51.186;0.276;2022-08-19T02:23:24;100945.91;;;24.19;57.51
64739;BME280;51175;51.186;0.276;2022-08-19T02:23:55;100939.72;;;24.18;57.38
64739;BME280;51175;51.186;0.276;2022-08-19T02:24:26;100935.13;;;24.19;57.47
64739;BME280;51175;51.186;0.276;2022-08-19T02:24:57;100939.72;;;24.18;57.26
64739;BME280;51175;51.186;0.276;2022-08-19T02:25:27;100944.34;;;24.18;57.40
64739;BME280;51175;51.186;0.276;2022-08-19T02:25:58;100939.72;;;24.18;57.60
64739;BME280;51175;51.186;0.276;2022-08-19T02:26:28;100944.34;;;24.18;57.72
64739;BME280;51175;51.186;0.276;2022-08-19T02:26:59;100939.72;;;24.18;57.47
64739;BME280;51175;51.186;0.276;2022-08-19T02:27:29;100946.25;;;24.17;57.49
64739;BME280;51175;51.186;0.276;2022-08-19T02:28:01;100938.97;;;24.18;57.55
64739;BME280;51175;51.186;0.276;2022-08-19T02:28:31;100938.97;;;24.18;57.51
64739;BME280;51175;51.186;0.276;2022-08-19T02:29:03;100937.03;;;24.18;57.42
64739;BME280;51175;51.186;0.276;2022-08-19T02:29:34;100948.97;;;24.17;57.27
64739;BME280;51175;51.186;0.276;2022-08-19T02:30:06;100941.66;;;24.18;57.34
64739;BME280;51175;51.186;0.276;2022-08-19T02:30:38;100939.72;;;24.18;57.43
64739;BME280;51175;51.186;0.276;2022-08-19T02:31:12;100938.97;;;24.18;57.59
64739;BME280;51175;51.186;0.276;2022-08-19T02:31:44;100945.47;;;24.17;57.45
64739;BME280;51175;51.186;0.276;2022-08-19T02:32:16;100944.34;;;24.18;57.39
64739;BME280;51175;51.186;0.276;2022-08-19T02:32:48;100945.47;;;24.17;57.56
64739;BME280;51175;51.186;0.276;2022-08-19T02:33:19;100945.47;;;24.17;57.41
64739;BME280;51175;51.186;0.276;2022-08-19T02:33:49;100937.38;;;24.17;57.50
64739;BME280;51175;51.186;0.276;2022-08-19T02:34:20;100931.97;;;24.17;57.69
64739;BME280;51175;51.186;0.276;2022-08-19T02:34:50;100941.66;;;24.18;57.50
64739;BME280;51175;51.186;0.276;2022-08-19T02:35:21;100938.16;;;24.17;57.43
64739;BME280;51175;51.186;0.276;2022-08-19T02:35:51;100938.16;;;24.17;57.48
64739;BME280;51175;51.186;0.276;2022-08-19T02:36:22;100942.00;;;24.16;57.53
64739;BME280;51175;51.186;0.276;2022-08-19T02:36:53;100942.75;;;24.17;57.57
64739;BME280;51175;51.186;0.276;2022-08-19T02:37:23;100936.59;;;24.16;57.74
64739;BME280;51175;51.186;0.276;2022-08-19T02:38:23;100937.38;;;24.17;57.61
64739;BME280;51175;51.186;0.276;2022-08-19T02:38:56;100937.38;;;24.17;57.59
64739;BME280;51175;51.186;0.276;2022-08-19T02:39:26;100943.91;;;24.16;57.53
64739;BME280;51175;51.186;0.276;2022-08-19T02:39:57;100935.00;;;24.15;57.38
64739;BME280;51175;51.186;0.276;2022-08-19T02:40:29;100942.34;;;24.15;57.46
64739;BME280;51175;51.186;0.276;2022-08-19T02:41:07;100937.72;;;24.15;57.61
64739;BME280;51175;51.186;0.276;2022-08-19T02:41:40;100939.66;;;24.15;57.62
64739;BME280;51175;51.186;0.276;2022-08-19T02:42:10;100944.22;;;24.14;57.56
64739;BME280;51175;51.186;0.276;2022-08-19T02:42:41;100939.66;;;24.15;57.72
64739;BME280;51175;51.186;0.276;2022-08-19T02:43:12;100942.34;;;24.15;57.61
64739;BME280;51175;51.186;0.276;2022-08-19T02:43:43;100944.22;;;24.14;57.69
64739;BME280;51175;51.186;0.276;2022-08-19T02:44:13;100947.75;;;24.15;57.77
64739;BME280;51175;51.186;0.276;2022-08-19T02:44:44;100948.81;;;24.14;57.74
64739;BME280;51175;51.186;0.276;2022-08-19T02:45:14;100950.44;;;24.15;57.76
64739;BME280;51175;51.186;0.276;2022-08-19T02:45:44;100940.72;;;24.14;57.69
64739;BME280;51175;51.186;0.276;2022-08-19T02:46:27;100946.91;;;24.14;57.52
64739;BME280;51175;51.186;0.276;2022-08-19T02:46:58;100954.22;;;24.14;57.60
64739;BME280;51175;51.186;0.276;2022-08-19T02:47:29;100948.81;;;24.14;57.64
64739;BME280;51175;51.186;0.276;2022-08-19T02:48:00;100946.91;;;24.14;57.69
64739;BME280;51175;51.186;0.276;2022-08-19T02:48:30;100946.91;;;24.14;57.67
64739;BME280;51175;51.186;0.276;2022-08-19T02:49:06;100948.06;;;24.13;57.86